Time;durP1;ratioP1;P1;durP2;ratioP2;P2;SDS_P1;SDS_P2;PMS_P1;PMS_P2;Temp;Humidity;BMP_temperature;BMP_pressure;BME280_temperature;BME280_humidity;BME280_pressure;Samples;Min_cycle;Max_cycle;Signal;HPM_P1;HPM_P2
2023/07/05 00:02:26;;;;;;;2.08;1.50;;;21.10;71.70;;;;;;5091735;28;20101;-40
2023/07/05 00:04:53;;;;;;;2.42;1.42;;;;;;;;;;5091894;28;20102;-40
2023/07/05 00:07:20;;;;;;;2.88;1.60;;;;;;;;;;5090024;28;20512;-37
2023/07/05 00:09:47;;;;;;;2.13;1.52;;;;;;;;;;5082304;28;20147;-35
2023/07/05 00:12:15;;;;;;;2.00;1.35;;;20.90;60.70;;;;;;5079297;28;20135;-37
2023/07/05 00:14:42;;;;;;;2.50;1.50;;;;;;;;;;5085976;28;20051;-37
2023/07/05 00:17:10;;;;;;;3.20;1.63;;;21.10;77.90;;;;;;5092991;28;20126;-37
2023/07/05 00:19:36;;;;;;;1.90;1.50;;;20.70;66.20;;;;;;5096391;28;20055;-39
2023/07/05 00:22:04;;;;;;;2.60;1.50;;;;;;;;;;5095979;28;20455;-33
2023/07/05 00:24:31;;;;;;;2.10;1.50;;;;;;;;;;5094304;28;20130;-35
2023/07/05 00:26:57;;;;;;;2.78;1.42;;;21.10;77.50;;;;;;5095691;28;20048;-40
2023/07/05 00:29:26;;;;;;;2.22;1.52;;;21.30;70.90;;;;;;5095836;28;20131;-37
2023/07/05 00:31:53;;;;;;;3.53;1.95;;;;;;;;;;5095988;28;20074;-36
2023/07/05 00:34:20;;;;;;;2.22;1.40;;;;;;;;;;5095494;28;20560;-35
2023/07/05 00:36:47;;;;;;;2.78;1.50;;;;;;;;;;5095161;28;20070;-36
2023/07/05 00:39:14;;;;;;;2.30;1.42;;;20.60;77.20;;;;;;5095034;28;20052;-38
2023/07/05 00:41:41;;;;;;;2.83;1.70;;;19.70;76.80;;;;;;5075575;28;20048;-39
2023/07/05 00:44:07;;;;;;;2.80;1.42;;;21.10;72.30;;;;;;5074981;28;20059;-40
2023/07/05 00:46:35;;;;;;;2.25;1.52;;;21.10;77.50;;;;;;5075586;28;20055;-40
2023/07/05 00:49:04;;;;;;;2.40;1.45;;;21.10;77.80;;;;;;5075146;28;20139;-40
2023/07/05 00:51:35;;;;;;;2.65;1.60;;;20.60;78.10;;;;;;5075361;28;20052;-40
2023/07/05 00:54:02;;;;;;;2.30;1.52;;;21.10;62.80;;;;;;5074922;28;20131;-36
2023/07/05 00:56:31;;;;;;;2.20;1.50;;;20.70;71.00;;;;;;5083198;28;20048;-39
2023/07/05 00:58:58;;;;;;;2.85;1.50;;;21.00;77.40;;;;;;5095472;28;20044;-40
2023/07/05 01:01:25;;;;;;;2.10;1.63;;;20.90;77.50;;;;;;5095518;28;20055;-39
2023/07/05 01:03:54;;;;;;;2.58;1.60;;;20.80;60.80;;;;;;5095140;28;20127;-37
2023/07/05 01:06:22;;;;;;;2.15;1.60;;;20.70;77.80;;;;;;5094946;28;20131;-40
2023/07/05 01:08:49;;;;;;;2.17;1.45;;;;;;;;;;5095223;28;20048;-40
2023/07/05 01:11:21;;;;;;;2.30;1.70;;;20.80;60.80;;;;;;5093984;28;20127;-35
2023/07/05 01:13:55;;;;;;;2.35;1.60;;;20.80;77.80;;;;;;5094862;28;20741;-40
2023/07/05 01:16:27;;;;;;;2.20;1.65;;;21.80;78.00;;;;;;5095216;28;20135;-40
2023/07/05 01:18:58;;;;;;;2.10;1.60;;;21.10;77.70;;;;;;5093220;28;20078;-40
2023/07/05 01:21:28;;;;;;;2.10;1.50;;;21.70;77.90;;;;;;5094843;28;20527;-40
2023/07/05 01:24:36;;;;;;;3.72;1.90;;;20.80;60.80;;;;;;5094914;28;20461;-40
2023/07/05 01:27:39;;;;;;;2.05;1.40;;;20.90;77.50;;;;;;5084774;28;20062;-40
2023/07/05 01:30:37;;;;;;;4.53;1.65;;;20.70;77.60;;;;;;5073113;28;20131;-40
2023/07/05 01:33:06;;;;;;;2.50;1.70;;;21.00;78.50;;;;;;5074216;28;20507;-40
2023/07/05 01:35:35;;;;;;;2.38;1.60;;;21.10;70.00;;;;;;5074372;28;20135;-36
2023/07/05 01:38:05;;;;;;;2.75;1.58;;;20.70;77.50;;;;;;5092126;28;20044;-39
2023/07/05 01:40:53;;;;;;;3.25;1.60;;;21.30;78.10;;;;;;5094720;28;20048;-39
2023/07/05 01:43:20;;;;;;;2.15;1.42;;;20.60;77.80;;;;;;5094371;28;20044;-39
2023/07/05 01:45:50;;;;;;;1.63;1.30;;;20.80;77.60;;;;;;5086193;28;20047;-40
2023/07/05 01:48:21;;;;;;;2.22;1.48;;;20.30;77.60;;;;;;5094352;28;20127;-40
2023/07/05 01:50:51;;;;;;;3.28;2.00;;;20.20;78.00;;;;;;5094353;28;20131;-40
2023/07/05 01:53:19;;;;;;;3.47;1.77;;;20.00;62.70;;;;;;5093887;28;20132;-37
2023/07/05 01:55:47;;;;;;;3.15;1.65;;;21.70;78.30;;;;;;5094024;28;20560;-40
2023/07/05 01:58:16;;;;;;;2.22;1.50;;;21.00;77.60;;;;;;5094294;28;20122;-39
2023/07/05 02:00:43;;;;;;;3.75;1.80;;;20.30;77.30;;;;;;5087669;28;20049;-40
2023/07/05 02:03:11;;;;;;;2.72;1.83;;;20.70;60.80;;;;;;5093231;28;20501;-36
2023/07/05 02:05:39;;;;;;;1.83;1.58;;;20.30;77.30;;;;;;5093689;28;20424;-39
2023/07/05 02:08:06;;;;;;;2.50;1.60;;;20.50;77.30;;;;;;5094163;28;20051;-40
2023/07/05 02:10:33;;;;;;;2.53;1.75;;;21.00;77.90;;;;;;5093900;28;20079;-40
2023/07/05 02:13:03;;;;;;;2.65;1.60;;;20.40;60.90;;;;;;5093800;28;20135;-38
2023/07/05 02:15:29;;;;;;;2.78;2.03;;;21.50;77.80;;;;;;5093829;28;20054;-39
2023/07/05 02:17:56;;;;;;;2.40;1.70;;;20.40;64.00;;;;;;5078039;28;20558;-39
2023/07/05 02:20:23;;;;;;;2.50;1.75;;;20.80;78.20;;;;;;5073613;28;20087;-40
2023/07/05 02:22:51;;;;;;;2.67;1.60;;;20.90;77.40;;;;;;5073401;28;20132;-40
2023/07/05 02:25:19;;;;;;;2.35;1.58;;;20.70;77.50;;;;;;5073502;28;20131;-40
2023/07/05 02:27:46;;;;;;;3.13;1.70;;;;;;;;;;5073220;28;20542;-36
2023/07/05 02:30:13;;;;;;;2.17;1.67;;;20.90;77.60;;;;;;5073259;28;20465;-39
2023/07/05 02:32:41;;;;;;;3.50;1.80;;;;;;;;;;5074131;28;20135;-37
2023/07/05 02:35:09;;;;;;;3.28;2.05;;;20.70;60.90;;;;;;5073417;28;20127;-39
2023/07/05 02:37:35;;;;;;;4.18;2.00;;;20.90;77.60;;;;;;5087369;28;20059;-40
2023/07/05 02:40:04;;;;;;;3.00;1.92;;;20.60;78.20;;;;;;5093053;28;20071;-40
2023/07/05 02:42:31;;;;;;;2.50;1.90;;;20.50;64.80;;;;;;5093135;28;20509;-36
2023/07/05 02:44:58;;;;;;;2.60;1.83;;;20.70;77.50;;;;;;5092864;28;20127;-38
2023/07/05 02:47:24;;;;;;;2.72;1.85;;;20.20;78.10;;;;;;5093346;28;20098;-39
2023/07/05 02:49:51;;;;;;;2.70;1.98;;;;;;;;;;5080187;28;20135;-37
2023/07/05 02:52:18;;;;;;;2.55;1.80;;;20.60;77.80;;;;;;5072483;28;20059;-39
2023/07/05 02:54:45;;;;;;;2.33;1.80;;;20.50;77.50;;;;;;5072712;28;20131;-40
2023/07/05 02:57:13;;;;;;;2.67;1.98;;;20.40;68.90;;;;;;5076221;28;20048;-37
2023/07/05 02:59:39;;;;;;;2.17;1.70;;;21.00;67.00;;;;;;5093270;28;20059;-39
2023/07/05 03:02:06;;;;;;;2.80;1.70;;;19.70;70.40;;;;;;5093208;28;20047;-39
2023/07/05 03:04:33;;;;;;;2.55;1.90;;;20.90;78.10;;;;;;5089028;28;20131;-40
2023/07/05 03:06:59;;;;;;;3.40;1.90;;;20.50;64.00;;;;;;5088603;28;20044;-38
2023/07/05 03:09:26;;;;;;;3.13;2.08;;;20.30;77.30;;;;;;5092697;28;20047;-40
2023/07/05 03:11:53;;;;;;;3.50;2.00;;;21.20;77.90;;;;;;5092744;28;20134;-40
2023/07/05 03:14:21;;;;;;;4.47;2.10;;;20.70;60.90;;;;;;5092789;28;20472;-37
2023/07/05 03:16:48;;;;;;;3.38;1.98;;;;;;;;;;5092642;28;20131;-38
2023/07/05 03:19:15;;;;;;;2.65;1.75;;;21.50;78.10;;;;;;5092892;28;20131;-39
2023/07/05 03:21:42;;;;;;;2.95;2.10;;;21.20;78.70;;;;;;5080535;28;20048;-40
2023/07/05 03:24:09;;;;;;;2.47;1.80;;;;;;;;;;5071809;28;20564;-36
2023/07/05 03:26:36;;;;;;;2.60;1.90;;;20.50;78.30;;;;;;5072135;28;20588;-40
2023/07/05 03:29:03;;;;;;;2.72;1.90;;;21.70;71.50;;;;;;5072364;28;20048;-39
2023/07/05 03:31:31;;;;;;;2.70;2.17;;;20.40;77.50;;;;;;5072303;28;20132;-40
2023/07/05 03:33:58;;;;;;;3.00;2.00;;;;;;;;;;5076169;28;20040;-38
2023/07/05 03:36:25;;;;;;;2.90;2.13;;;20.60;64.50;;;;;;5076542;28;20130;-38
2023/07/05 03:38:52;;;;;;;5.32;2.10;;;20.90;77.50;;;;;;5092163;28;20119;-40
2023/07/05 03:41:20;;;;;;;3.45;2.17;;;20.20;73.40;;;;;;5092278;28;20473;-39
2023/07/05 03:43:48;;;;;;;2.60;1.95;;;20.10;62.90;;;;;;5092150;28;20135;-38
2023/07/05 03:46:15;;;;;;;3.35;2.20;;;;;;;;;;5091422;28;20501;-35
2023/07/05 03:48:44;;;;;;;4.00;2.35;;;20.60;78.40;;;;;;5092277;28;20123;-39
2023/07/05 03:51:11;;;;;;;2.78;2.13;;;;;;;;;;5091668;28;20138;-39
2023/07/05 03:53:38;;;;;;;4.07;2.55;;;20.50;77.20;;;;;;5091372;28;20046;-39
2023/07/05 03:56:06;;;;;;;3.45;2.08;;;21.20;78.70;;;;;;5092310;28;20052;-40
2023/07/05 03:58:34;;;;;;;3.42;1.90;;;;;;;;;;5091989;28;20143;-38
2023/07/05 04:01:05;;;;;;;3.97;2.10;;;21.00;77.90;;;;;;5092245;28;20130;-40
2023/07/05 04:03:32;;;;;;;3.03;2.10;;;21.20;75.00;;;;;;5079712;28;20131;-39
2023/07/05 04:06:01;;;;;;;2.60;2.15;;;20.60;73.00;;;;;;5071401;28;20136;-40
2023/07/05 04:08:27;;;;;;;3.10;2.17;;;21.00;68.10;;;;;;5071726;28;20051;-39
2023/07/05 04:10:54;;;;;;;3.63;2.22;;;19.40;76.90;;;;;;5085053;28;20479;-39
2023/07/05 04:13:21;;;;;;;3.33;2.30;;;21.00;77.90;;;;;;5091800;28;20130;-39
2023/07/05 04:15:48;;;;;;;3.00;2.13;;;;;;;;;;5091493;28;20417;-35
2023/07/05 04:18:15;;;;;;;2.95;2.30;;;20.30;78.30;;;;;;5088485;28;20044;-30
2023/07/05 04:20:42;;;;;;;3.55;2.40;;;;;;;;;;5091662;28;20127;-31
2023/07/05 04:23:10;;;;;;;2.72;2.15;;;20.80;78.50;;;;;;5091708;28;20054;-30
2023/07/05 04:25:36;;;;;;;4.40;2.60;;;19.80;77.30;;;;;;5091875;28;20127;-33
2023/07/05 04:28:04;;;;;;;3.20;2.47;;;20.60;77.10;;;;;;5091396;28;20552;-30
2023/07/05 04:30:31;;;;;;;3.50;2.30;;;21.10;78.40;;;;;;5091864;28;20055;-31
2023/07/05 04:32:58;;;;;;;2.60;2.10;;;;;;;;;;5091477;28;20131;-35
2023/07/05 04:35:25;;;;;;;3.75;2.45;;;20.80;77.80;;;;;;5074063;28;20052;-30
2023/07/05 04:37:52;;;;;;;4.28;2.40;;;20.60;77.90;;;;;;5088023;28;20044;-32
2023/07/05 04:40:21;;;;;;;4.00;2.50;;;19.70;63.10;;;;;;5091991;28;20135;-32
2023/07/05 04:42:48;;;;;;;4.03;2.55;;;20.80;77.90;;;;;;5091271;28;20123;-30
2023/07/05 04:45:15;;;;;;;3.47;2.10;;;;;;;;;;5091629;28;20132;-34
2023/07/05 04:47:43;;;;;;;3.22;2.40;;;;;;;;;;5091521;28;20130;-32
2023/07/05 04:50:10;;;;;;;3.55;2.70;;;19.50;77.40;;;;;;5090832;28;20044;-31
2023/07/05 04:52:37;;;;;;;3.05;2.47;;;20.70;67.20;;;;;;5091507;28;20138;-31
2023/07/05 04:55:04;;;;;;;4.13;2.65;;;20.20;78.10;;;;;;5091558;28;20088;-30
2023/07/05 04:57:32;;;;;;;4.18;2.65;;;21.50;73.70;;;;;;5091390;28;20105;-30
2023/07/05 05:00:04;;;;;;;4.03;2.55;;;19.80;71.10;;;;;;5091435;28;20131;-31
2023/07/05 05:02:31;;;;;;;4.63;2.75;;;;;;;;;;5091353;28;20455;-34
2023/07/05 05:04:58;;;;;;;3.50;2.42;;;20.10;78.10;;;;;;5094285;28;20074;-30
2023/07/05 05:07:24;;;;;;;3.28;2.40;;;20.80;78.50;;;;;;5094634;28;20134;-30
2023/07/05 05:09:51;;;;;;;3.45;2.60;;;;;;;;;;5095177;28;20090;-34
2023/07/05 05:12:18;;;;;;;3.65;2.70;;;20.80;78.20;;;;;;5094767;28;20119;-30
2023/07/05 05:14:46;;;;;;;4.07;2.50;;;20.60;78.80;;;;;;5094968;28;20062;-31
2023/07/05 05:17:13;;;;;;;5.78;2.75;;;20.40;78.00;;;;;;5094710;28;20135;-30
2023/07/05 05:19:40;;;;;;;3.30;2.63;;;20.20;65.80;;;;;;5095137;28;20416;-32
2023/07/05 05:22:06;;;;;;;3.65;2.47;;;20.70;78.20;;;;;;5086535;28;20102;-31
2023/07/05 05:24:33;;;;;;;2.85;2.40;;;20.20;77.90;;;;;;5074580;28;20127;-32
2023/07/05 05:27:00;;;;;;;5.05;2.53;;;20.50;66.80;;;;;;5074354;28;20127;-31
2023/07/05 05:29:27;;;;;;;3.63;2.85;;;20.40;78.00;;;;;;5074403;28;20041;-30
2023/07/05 05:31:55;;;;;;;5.20;2.70;;;20.50;61.20;;;;;;5080036;28;20084;-35
2023/07/05 05:34:22;;;;;;;2.97;2.40;;;20.60;78.00;;;;;;5074025;28;20139;-31
2023/07/05 05:36:48;;;;;;;3.05;2.42;;;20.10;74.70;;;;;;5082247;28;20465;-31
2023/07/05 05:39:15;;;;;;;3.33;2.33;;;20.70;78.80;;;;;;5086284;28;20128;-31
2023/07/05 05:41:42;;;;;;;3.75;2.70;;;;;;;;;;5094405;28;20048;-35
2023/07/05 05:44:09;;;;;;;3.95;2.70;;;20.90;78.70;;;;;;5094040;28;20144;-30
2023/07/05 05:46:36;;;;;;;3.88;2.60;;;20.40;78.20;;;;;;5093924;28;20056;-30
2023/07/05 05:49:04;;;;;;;3.17;2.50;;;20.40;60.90;;;;;;5094180;28;20048;-34
2023/07/05 05:51:31;;;;;;;3.40;2.58;;;;;;;;;;5094511;28;20131;-33
2023/07/05 05:53:57;;;;;;;2.63;2.33;;;20.80;78.70;;;;;;5089424;28;20041;-30
2023/07/05 05:56:24;;;;;;;3.13;2.47;;;20.20;78.30;;;;;;5085425;28;20122;-30
2023/07/05 05:58:51;;;;;;;2.50;2.30;;;20.60;65.90;;;;;;5085149;28;20119;-32
2023/07/05 06:01:19;;;;;;;2.85;2.35;;;;;;;;;;5094104;28;20408;-30
2023/07/05 06:03:46;;;;;;;2.63;2.15;;;20.70;78.70;;;;;;5093882;28;20139;-30
2023/07/05 06:06:14;;;;;;;3.25;2.38;;;19.40;77.60;;;;;;5093927;28;20058;-31
2023/07/05 06:08:40;;;;;;;3.63;2.40;;;20.30;77.60;;;;;;5093945;28;20660;-30
2023/07/05 06:11:07;;;;;;;3.28;2.30;;;20.60;67.10;;;;;;5084767;28;20059;-36
2023/07/05 06:13:34;;;;;;;4.00;2.40;;;21.00;77.80;;;;;;5093612;28;20052;-35
2023/07/05 06:16:03;;;;;;;3.28;2.38;;;20.40;60.80;;;;;;5093157;28;20135;-38
2023/07/05 06:18:30;;;;;;;3.03;2.35;;;21.20;76.50;;;;;;5093744;28;20047;-35
2023/07/05 06:20:56;;;;;;;3.25;2.40;;;20.20;77.60;;;;;;5093858;28;20424;-37
2023/07/05 06:23:25;;;;;;;2.67;2.35;;;20.40;60.80;;;;;;5093483;28;20139;-34
2023/07/05 06:25:52;;;;;;;3.30;2.38;;;;;;;;;;5091932;28;20154;-34
2023/07/05 06:28:19;;;;;;;2.85;2.10;;;19.70;78.00;;;;;;5093673;28;20127;-39
2023/07/05 06:30:45;;;;;;;2.58;2.28;;;20.10;77.50;;;;;;5093607;28;20127;-36
2023/07/05 06:33:13;;;;;;;2.75;2.20;;;20.90;75.10;;;;;;5092738;28;20090;-39
2023/07/05 06:35:40;;;;;;;3.22;2.30;;;;;;;;;;5082541;28;20044;-39
2023/07/05 06:38:07;;;;;;;2.95;2.20;;;20.90;78.70;;;;;;5073691;28;20048;-39
2023/07/05 06:40:35;;;;;;;2.40;1.90;;;21.60;78.10;;;;;;5073188;28;20127;-35
2023/07/05 06:43:03;;;;;;;2.92;2.20;;;20.60;77.70;;;;;;5083872;28;20141;-40
2023/07/05 06:45:29;;;;;;;2.83;2.10;;;20.40;78.40;;;;;;5092977;28;20054;-39
2023/07/05 06:47:56;;;;;;;3.33;2.30;;;;;;;;;;5093350;28;20140;-35
2023/07/05 06:50:23;;;;;;;2.88;2.33;;;20.90;78.00;;;;;;5093030;28;20131;-38
2023/07/05 06:52:50;;;;;;;3.22;2.25;;;20.00;77.40;;;;;;5092757;28;20048;-38
2023/07/05 06:55:17;;;;;;;3.08;2.20;;;20.60;73.30;;;;;;5092743;28;20531;-37
2023/07/05 06:57:45;;;;;;;3.08;2.30;;;20.00;77.40;;;;;;5091585;28;20135;-38
2023/07/05 07:00:13;;;;;;;2.72;2.20;;;20.40;77.60;;;;;;5087055;28;20124;-36
2023/07/05 07:02:40;;;;;;;2.60;1.98;;;20.70;77.80;;;;;;5083412;28;20123;-36
2023/07/05 07:05:07;;;;;;;3.80;2.50;;;;;;;;;;5092608;28;20561;-35
2023/07/05 07:07:34;;;;;;;6.63;2.38;;;20.40;77.60;;;;;;5093054;28;20226;-37
2023/07/05 07:10:02;;;;;;;4.68;2.17;;;20.50;60.90;;;;;;5092705;28;20605;-36
2023/07/05 07:12:29;;;;;;;7.18;2.55;;;20.80;65.90;;;;;;5092631;28;20405;-35
2023/07/05 07:14:57;;;;;;;3.03;2.25;;;20.60;77.70;;;;;;5080877;28;20103;-38
2023/07/05 07:17:24;;;;;;;3.13;2.15;;;;;;;;;;5072048;28;20150;-36
2023/07/05 07:19:52;;;;;;;3.22;2.30;;;;;;;;;;5072245;28;20045;-33
2023/07/05 07:22:18;;;;;;;2.72;2.17;;;20.90;78.20;;;;;;5072397;28;20131;-39
2023/07/05 07:24:45;;;;;;;3.65;2.30;;;20.60;77.90;;;;;;5072388;28;20086;-36
2023/07/05 07:27:12;;;;;;;3.13;2.20;;;20.40;71.50;;;;;;5072917;28;20045;-37
2023/07/05 07:29:39;;;;;;;3.67;2.30;;;20.60;77.80;;;;;;5082453;28;20051;-36
2023/07/05 07:32:09;;;;;;;2.47;2.08;;;20.30;74.00;;;;;;5092358;28;20448;-36
2023/07/05 07:34:36;;;;;;;3.85;2.40;;;20.60;70.70;;;;;;5074349;28;20059;-37
2023/07/05 07:37:03;;;;;;;2.88;2.13;;;20.80;77.80;;;;;;5081977;28;20052;-39
2023/07/05 07:39:30;;;;;;;4.50;2.10;;;21.20;78.30;;;;;;5086638;28;20119;-36
2023/07/05 07:41:57;;;;;;;5.13;2.28;;;;;;;;;;5079754;28;20066;-37
2023/07/05 07:44:23;;;;;;;6.45;2.60;;;20.50;78.50;;;;;;5076984;28;20079;-37
2023/07/05 07:46:50;;;;;;;3.85;2.13;;;;;;;;;;5083361;28;20067;-34
2023/07/05 07:49:19;;;;;;;4.10;2.13;;;20.80;77.70;;;;;;5081127;28;20119;-38
2023/07/05 07:51:45;;;;;;;3.50;2.17;;;19.70;77.30;;;;;;5078820;28;20044;-39
2023/07/05 07:54:14;;;;;;;3.65;2.05;;;20.50;60.80;;;;;;5081534;28;20052;-35
2023/07/05 07:56:42;;;;;;;3.17;2.00;;;20.50;60.80;;;;;;5080564;28;20041;-37
2023/07/05 07:59:09;;;;;;;3.50;2.35;;;;;;;;;;5070531;28;20119;-36
2023/07/05 08:01:37;;;;;;;4.43;2.25;;;20.30;78.10;;;;;;5071196;28;20123;-35
2023/07/05 08:04:04;;;;;;;4.53;2.20;;;21.30;70.20;;;;;;5071006;28;20052;-36
2023/07/05 08:06:34;;;;;;;3.10;2.25;;;20.70;68.40;;;;;;5070971;28;20128;-35
2023/07/05 08:09:00;;;;;;;3.20;2.25;;;20.30;77.30;;;;;;5071246;28;20059;-39
2023/07/05 08:11:27;;;;;;;2.50;1.90;;;19.40;72.20;;;;;;5080789;28;20131;-38
2023/07/05 08:13:54;;;;;;;3.38;2.13;;;;;;;;;;5081718;28;20066;-34
2023/07/05 08:16:21;;;;;;;2.72;2.13;;;20.50;60.60;;;;;;5075333;28;20052;-33
2023/07/05 08:18:48;;;;;;;4.28;2.45;;;21.50;78.20;;;;;;5071744;28;20128;-37
2023/07/05 08:21:15;;;;;;;2.67;2.22;;;;;;;;;;5071811;28;20056;-33
2023/07/05 08:23:43;;;;;;;3.67;2.03;;;20.90;75.30;;;;;;5075983;28;20055;-38
2023/07/05 08:26:10;;;;;;;3.30;2.20;;;21.30;77.90;;;;;;5092064;28;20130;-37
2023/07/05 08:28:37;;;;;;;4.13;2.30;;;20.20;77.40;;;;;;5091413;28;20059;-39
2023/07/05 08:31:04;;;;;;;3.80;2.30;;;20.50;60.80;;;;;;5091535;28;20505;-37
2023/07/05 08:33:32;;;;;;;3.05;1.90;;;20.50;63.40;;;;;;5091776;28;20052;-38
2023/07/05 08:36:08;;;;;;;3.55;2.10;;;21.30;78.10;;;;;;5090897;28;20052;-38
2023/07/05 08:38:36;;;;;;;2.67;2.00;;;;;;;;;;5084944;28;20052;-40
2023/07/05 08:41:06;;;;;;;3.72;1.88;;;20.40;77.40;;;;;;5079247;28;20132;-36
2023/07/05 08:43:35;;;;;;;3.40;2.10;;;21.40;78.00;;;;;;5083061;28;20055;-36
2023/07/05 08:46:04;;;;;;;2.75;2.05;;;20.50;60.40;;;;;;5075222;28;20127;-37
2023/07/05 08:48:32;;;;;;;4.55;2.10;;;19.90;76.80;;;;;;5082039;28;20128;-37
2023/07/05 08:50:58;;;;;;;4.35;1.80;;;20.90;75.40;;;;;;5084194;28;20051;-35
2023/07/05 08:53:25;;;;;;;3.35;1.85;;;21.00;77.40;;;;;;5082902;28;20270;-39
2023/07/05 08:55:53;;;;;;;4.32;1.45;;;;;;;;;;5079612;28;20053;-34
2023/07/05 08:58:23;;;;;;;2.75;1.70;;;21.20;78.10;;;;;;5084234;28;20048;-39
2023/07/05 09:00:53;;;;;;;2.42;1.80;;;20.20;77.70;;;;;;5077027;28;20450;-31
2023/07/05 09:03:20;;;;;;;3.15;1.67;;;20.20;77.20;;;;;;5082095;28;20044;-31
2023/07/05 09:05:49;;;;;;;2.92;1.60;;;20.60;77.10;;;;;;5091221;28;20054;-31
2023/07/05 09:08:23;;;;;;;2.58;1.75;;;20.40;60.10;;;;;;5088730;28;20135;-35
2023/07/05 09:10:53;;;;;;;5.03;1.63;;;20.20;77.60;;;;;;5085597;28;20127;-31
2023/07/05 09:13:25;;;;;;;2.28;1.70;;;20.50;64.60;;;;;;5073972;28;20131;-31
2023/07/05 09:15:55;;;;;;;2.30;1.45;;;20.40;77.40;;;;;;5087071;28;20118;-31
2023/07/05 09:18:26;;;;;;;3.20;1.50;;;19.30;76.70;;;;;;5084493;28;20477;-31
2023/07/05 09:20:59;;;;;;;2.08;1.48;;;20.70;77.20;;;;;;5099277;28;20036;-30
2023/07/05 09:23:28;;;;;;;2.55;1.42;;;20.30;74.80;;;;;;5083844;28;20118;-31
2023/07/05 09:25:58;;;;;;;2.20;1.50;;;20.30;60.10;;;;;;5102356;28;20048;-35
2023/07/05 09:28:29;;;;;;;2.20;1.45;;;20.30;60.10;;;;;;5102300;28;20460;-35
2023/07/05 09:30:58;;;;;;;2.42;1.42;;;20.60;62.70;;;;;;5099740;28;20043;-32
2023/07/05 09:33:28;;;;;;;2.08;1.48;;;20.60;78.00;;;;;;5091189;28;20123;-32
2023/07/05 09:35:55;;;;;;;3.38;1.50;;;20.40;77.90;;;;;;5102179;28;20123;-31
2023/07/05 09:38:25;;;;;;;3.40;1.50;;;20.50;62.70;;;;;;5107339;28;20123;-32
2023/07/05 09:40:53;;;;;;;2.22;1.50;;;19.60;59.70;;;;;;5107796;28;20035;-32
2023/07/05 09:43:24;;;;;;;2.03;1.30;;;19.40;72.70;;;;;;5100981;28;20453;-31
2023/07/05 09:45:52;;;;;;;2.72;1.40;;;21.30;77.70;;;;;;5098646;28;20429;-31
2023/07/05 09:48:19;;;;;;;2.22;1.30;;;;;;;;;;5095924;28;20050;-32
2023/07/05 09:50:49;;;;;;;2.97;1.25;;;20.90;73.20;;;;;;5091004;28;20516;-32
2023/07/05 09:53:35;;;;;;;1.83;1.10;;;19.50;59.70;;;;;;5098465;28;20039;-33
2023/07/05 09:56:04;;;;;;;1.80;1.30;;;20.50;63.20;;;;;;5101191;28;20055;-33
2023/07/05 09:58:31;;;;;;;3.80;1.48;;;20.80;78.10;;;;;;5103431;28;20408;-33
2023/07/05 10:01:02;;;;;;;3.50;1.38;;;19.80;77.20;;;;;;5104743;28;20131;-30
2023/07/05 10:03:30;;;;;;;1.35;1.10;;;;;;;;;;5093006;28;20040;-36
2023/07/05 10:05:57;;;;;;;2.00;1.20;;;;;;;;;;5092628;28;20044;-33
2023/07/05 10:08:23;;;;;;;2.42;1.35;;;20.30;77.20;;;;;;5095945;28;20135;-32
2023/07/05 10:10:50;;;;;;;1.60;1.10;;;;;;;;;;5100344;28;20428;-34
2023/07/05 10:13:20;;;;;;;2.85;1.35;;;20.30;77.20;;;;;;5088687;28;20118;-31
2023/07/05 10:15:49;;;;;;;1.60;1.10;;;20.40;65.10;;;;;;5103990;28;20401;-32
2023/07/05 10:18:33;;;;;;;2.55;1.20;;;20.50;71.10;;;;;;5100206;28;20039;-31
2023/07/05 10:21:02;;;;;;;2.20;1.33;;;21.20;60.80;;;;;;5102369;28;20052;-32
2023/07/05 10:23:30;;;;;;;2.03;1.20;;;;;;;;;;5102238;28;20313;-34
2023/07/05 10:26:00;;;;;;;3.08;1.40;;;20.20;60.30;;;;;;5106754;28;20048;-34
2023/07/05 10:28:29;;;;;;;2.13;1.40;;;20.30;78.20;;;;;;5090661;28;20490;-31
2023/07/05 10:30:56;;;;;;;4.25;1.48;;;21.10;76.10;;;;;;5088628;28;20044;-35
2023/07/05 10:33:24;;;;;;;2.40;1.30;;;20.10;60.20;;;;;;5081455;28;20094;-34
2023/07/05 10:35:58;;;;;;;2.33;1.30;;;20.40;77.50;;;;;;5078692;28;20126;-31
2023/07/05 10:38:26;;;;;;;2.25;1.23;;;20.10;60.20;;;;;;5082799;28;20118;-31
2023/07/05 10:40:59;;;;;;;3.70;1.50;;;20.10;60.20;;;;;;5083055;28;20047;-33
2023/07/05 10:43:26;;;;;;;2.58;1.60;;;19.00;59.80;;;;;;5082052;28;20519;-32
2023/07/05 10:45:53;;;;;;;3.03;1.10;;;20.40;78.20;;;;;;5082808;28;20119;-31
2023/07/05 10:48:25;;;;;;;1.83;1.23;;;19.60;69.70;;;;;;5084527;28;20143;-31
2023/07/05 10:50:51;;;;;;;2.47;1.30;;;20.10;71.50;;;;;;5075763;28;20045;-31
2023/07/05 10:53:20;;;;;;;3.40;1.30;;;20.10;69.50;;;;;;5080589;28;20473;-34
2023/07/05 10:55:50;;;;;;;3.88;1.20;;;19.80;77.10;;;;;;5072322;28;20128;-32
2023/07/05 10:58:18;;;;;;;2.53;1.50;;;20.00;78.20;;;;;;5071843;28;20117;-31
2023/07/05 11:00:46;;;;;;;1.90;1.20;;;20.00;72.90;;;;;;5071975;28;20043;-32
2023/07/05 11:03:15;;;;;;;2.17;1.17;;;19.90;77.30;;;;;;5072180;28;20139;-32
2023/07/05 11:05:45;;;;;;;1.73;1.00;;;20.10;60.30;;;;;;5072258;28;20123;-32
2023/07/05 11:08:17;;;;;;;1.70;1.00;;;20.10;60.30;;;;;;5072242;28;20055;-33
2023/07/05 11:10:45;;;;;;;1.60;0.95;;;20.10;78.40;;;;;;5071609;28;20127;-31
2023/07/05 11:13:14;;;;;;;2.95;1.15;;;19.70;77.60;;;;;;5071683;28;20123;-31
2023/07/05 11:15:41;;;;;;;2.50;1.08;;;20.50;78.10;;;;;;5072197;28;20123;-31
2023/07/05 11:18:09;;;;;;;2.50;1.20;;;20.40;78.00;;;;;;5071610;28;20055;-32
2023/07/05 11:20:47;;;;;;;2.03;1.17;;;20.30;77.80;;;;;;5072367;28;20127;-32
2023/07/05 11:23:41;;;;;;;1.90;1.20;;;20.40;78.60;;;;;;5073816;28;20044;-31
2023/07/05 11:26:10;;;;;;;2.90;1.23;;;20.40;78.70;;;;;;5086338;28;20531;-32
2023/07/05 11:28:37;;;;;;;3.08;1.38;;;20.20;60.50;;;;;;5079170;28;20408;-33
2023/07/05 11:31:04;;;;;;;3.10;1.23;;;19.70;78.30;;;;;;5086332;28;20040;-31
2023/07/05 11:33:31;;;;;;;2.83;1.30;;;20.40;63.60;;;;;;5092366;28;20080;-35
2023/07/05 11:35:59;;;;;;;1.65;1.00;;;21.00;78.00;;;;;;5091681;28;20130;-32
2023/07/05 11:39:05;;;;;;;2.10;1.10;;;19.80;64.10;;;;;;5089834;28;20098;-31
2023/07/05 11:41:37;;;;;;;2.65;1.10;;;19.90;77.60;;;;;;5091949;28;20500;-34
2023/07/05 11:44:05;;;;;;;1.88;1.15;;;20.20;63.00;;;;;;5077568;28;20048;-32
2023/07/05 11:46:42;;;;;;;2.67;1.20;;;20.10;60.50;;;;;;5071845;28;20544;-34
2023/07/05 11:49:36;;;;;;;2.30;1.05;;;19.70;77.80;;;;;;5072118;28;20052;-31
2023/07/05 11:52:07;;;;;;;3.80;1.10;;;20.00;60.40;;;;;;5071839;28;20139;-37
2023/07/05 11:54:43;;;;;;;1.70;0.98;;;19.60;68.50;;;;;;5074093;28;20498;-31
2023/07/05 11:57:12;;;;;;;1.83;1.02;;;19.80;63.10;;;;;;5092135;28;20058;-32
2023/07/05 11:59:41;;;;;;;1.75;1.17;;;19.90;77.60;;;;;;5083685;28;20413;-30
2023/07/05 12:02:26;;;;;;;1.77;1.10;;;20.00;60.40;;;;;;5084729;28;20156;-34
2023/07/05 12:04:54;;;;;;;3.58;1.20;;;20.20;77.70;;;;;;5090386;28;20123;-30
2023/07/05 12:07:21;;;;;;;2.17;1.20;;;19.60;77.20;;;;;;5077497;28;20524;-31
2023/07/05 12:09:48;;;;;;;1.70;1.00;;;20.30;68.70;;;;;;5071871;28;20135;-30
2023/07/05 12:12:16;;;;;;;3.58;1.10;;;19.30;77.10;;;;;;5071003;28;20048;-30
2023/07/05 12:14:43;;;;;;;1.50;1.10;;;19.60;77.20;;;;;;5071047;28;20131;-31
2023/07/05 12:17:13;;;;;;;3.28;1.30;;;21.00;78.40;;;;;;5071906;28;20135;-31
2023/07/05 12:19:40;;;;;;;1.98;1.17;;;;;;;;;;5074892;28;20052;-33
2023/07/05 12:22:08;;;;;;;2.45;1.17;;;20.00;60.30;;;;;;5091728;28;20139;-35
2023/07/05 12:24:37;;;;;;;1.33;0.90;;;20.00;60.30;;;;;;5091966;28;20127;-34
2023/07/05 12:27:05;;;;;;;2.20;1.10;;;19.80;77.50;;;;;;5091755;28;20052;-31
2023/07/05 12:29:33;;;;;;;3.08;1.13;;;19.70;77.40;;;;;;5091907;28;20048;-31
2023/07/05 12:32:05;;;;;;;2.40;0.90;;;20.30;77.70;;;;;;5084024;28;20549;-30
2023/07/05 12:34:32;;;;;;;2.10;1.10;;;20.20;78.50;;;;;;5076593;28;20516;-30
2023/07/05 12:36:59;;;;;;;1.55;0.85;;;19.10;78.00;;;;;;5080756;28;20052;-30
2023/07/05 12:39:26;;;;;;;2.35;1.05;;;19.00;77.80;;;;;;5084817;28;20147;-31
2023/07/05 12:42:01;;;;;;;2.67;1.05;;;19.30;60.30;;;;;;5071324;28;20382;-30
2023/07/05 12:44:30;;;;;;;1.45;0.90;;;19.80;77.50;;;;;;5078798;28;20059;-31
2023/07/05 12:47:12;;;;;;;1.88;1.05;;;19.80;77.80;;;;;;5078900;28;20134;-31
2023/07/05 12:49:39;;;;;;;2.25;1.02;;;19.60;77.90;;;;;;5071006;28;20604;-30
2023/07/05 12:52:17;;;;;;;1.90;1.00;;;20.30;64.20;;;;;;5070455;28;20052;-31
2023/07/05 12:54:44;;;;;;;1.90;1.00;;;19.70;72.70;;;;;;5070392;28;20123;-30
2023/07/05 12:57:17;;;;;;;2.15;0.90;;;20.90;64.30;;;;;;5070993;28;20052;-32
2023/07/05 12:59:44;;;;;;;1.73;1.23;;;20.00;70.50;;;;;;5070695;28;20050;-31
2023/07/05 13:02:14;;;;;;;2.08;1.13;;;19.50;75.00;;;;;;5078973;28;20059;-32
2023/07/05 13:04:43;;;;;;;1.55;0.95;;;19.60;77.80;;;;;;5079826;28;20048;-31
2023/07/05 13:07:14;;;;;;;3.33;1.30;;;20.90;61.40;;;;;;5081187;28;20044;-34
2023/07/05 13:09:41;;;;;;;2.13;1.20;;;20.10;78.40;;;;;;5081832;28;20127;-31
2023/07/05 13:12:09;;;;;;;2.58;1.00;;;20.10;78.50;;;;;;5079952;28;20044;-31